createdAt,value
2018-11-26T00:00:27.106Z,929.33
2018-11-26T00:01:27.159Z,929.40
2018-11-26T00:02:27.202Z,929.39
2018-11-26T00:03:27.249Z,929.35
2018-11-26T00:04:27.268Z,929.39
2018-11-26T00:05:27.321Z,929.40
2018-11-26T00:06:27.362Z,929.39
2018-11-26T00:07:27.415Z,929.41
2018-11-26T00:08:27.492Z,929.43
2018-11-26T00:09:27.521Z,929.47
2018-11-26T00:10:27.552Z,929.44
2018-11-26T00:11:27.592Z,929.54
2018-11-26T00:12:27.637Z,929.55
2018-11-26T00:13:27.680Z,929.56
2018-11-26T00:14:27.735Z,929.55
2018-11-26T00:15:27.763Z,929.56
2018-11-26T00:16:27.821Z,929.54
2018-11-26T00:17:27.866Z,929.54
2018-11-26T00:18:27.908Z,929.56
2018-11-26T00:19:27.929Z,929.48
2018-11-26T00:20:27.981Z,929.57
2018-11-26T00:21:28.043Z,929.53
2018-11-26T00:22:28.092Z,929.52
2018-11-26T00:23:28.149Z,929.57
2018-11-26T00:24:28.173Z,929.53
2018-11-26T00:25:28.213Z,929.50
2018-11-26T00:26:28.282Z,929.49
2018-11-26T00:27:28.307Z,929.56
2018-11-26T00:28:28.369Z,929.52
2018-11-26T00:29:28.416Z,929.48
2018-11-26T00:30:28.478Z,929.58
2018-11-26T00:31:28.479Z,929.56
2018-11-26T00:32:28.529Z,929.56
2018-11-26T00:33:28.585Z,929.59
2018-11-26T00:34:28.655Z,929.59
2018-11-26T00:35:28.669Z,929.63
2018-11-26T00:36:28.733Z,929.62
2018-11-26T00:37:28.755Z,929.65
2018-11-26T00:38:28.813Z,929.59
2018-11-26T00:39:28.853Z,929.62
2018-11-26T00:40:28.937Z,929.63
2018-11-26T00:41:28.945Z,929.61
2018-11-26T00:42:28.972Z,929.70
2018-11-26T00:43:29.039Z,929.71
2018-11-26T00:44:29.050Z,929.69
2018-11-26T00:45:29.117Z,929.68
2018-11-26T00:46:29.151Z,929.71
2018-11-26T00:47:29.205Z,929.65
2018-11-26T00:48:29.245Z,929.68
2018-11-26T00:49:29.282Z,929.72
2018-11-26T00:50:29.382Z,929.72
2018-11-26T00:51:29.365Z,929.67
2018-11-26T00:52:29.422Z,929.68
2018-11-26T00:53:29.477Z,929.66
2018-11-26T00:54:29.503Z,929.65
2018-11-26T00:55:29.553Z,929.68
2018-11-26T00:56:29.576Z,929.65
2018-11-26T00:57:29.646Z,929.69
2018-11-26T00:58:29.690Z,929.68
2018-11-26T00:59:29.736Z,929.75
2018-11-26T01:00:29.777Z,929.80
2018-11-26T01:01:29.817Z,929.80
2018-11-26T01:02:29.865Z,929.75
2018-11-26T01:03:29.908Z,929.78
2018-11-26T01:04:29.964Z,929.81
2018-11-26T01:05:29.999Z,929.67
2018-11-26T01:06:30.058Z,929.80
2018-11-26T01:07:30.071Z,929.72
2018-11-26T01:08:30.179Z,929.76
2018-11-26T01:09:30.176Z,929.81
2018-11-26T01:10:30.243Z,929.79
2018-11-26T01:11:30.274Z,929.82
2018-11-26T01:12:30.321Z,929.81
2018-11-26T01:13:30.353Z,929.75
2018-11-26T01:14:30.401Z,929.75
2018-11-26T01:15:30.464Z,929.70
2018-11-26T01:16:30.476Z,929.76
2018-11-26T01:17:30.577Z,929.78
2018-11-26T01:18:30.617Z,929.72
2018-11-26T01:19:30.685Z,929.76
2018-11-26T01:20:30.653Z,929.73
2018-11-26T01:21:30.722Z,929.77
2018-11-26T01:22:30.776Z,929.75
2018-11-26T01:23:30.853Z,929.76
2018-11-26T01:24:30.829Z,929.72
2018-11-26T01:25:30.910Z,929.74
2018-11-26T01:26:30.962Z,929.74
2018-11-26T01:27:31.008Z,929.77
2018-11-26T01:28:31.059Z,929.74
2018-11-26T01:29:31.097Z,929.78
2018-11-26T01:30:31.135Z,929.75
2018-11-26T01:31:31.147Z,929.76
2018-11-26T01:32:31.285Z,929.74
2018-11-26T01:33:31.304Z,929.72
2018-11-26T01:34:31.290Z,929.70
2018-11-26T01:35:31.386Z,929.67
2018-11-26T01:36:31.425Z,929.66
2018-11-26T01:37:31.418Z,929.65
2018-11-26T01:38:31.547Z,929.59
2018-11-26T01:39:31.560Z,929.59
2018-11-26T01:40:31.576Z,929.60
2018-11-26T01:41:31.605Z,929.60
2018-11-26T01:42:31.716Z,929.62
2018-11-26T01:43:31.711Z,929.58
2018-11-26T01:44:31.798Z,929.60
2018-11-26T01:45:31.838Z,929.54
2018-11-26T01:46:31.847Z,929.56
2018-11-26T01:47:31.910Z,929.53
2018-11-26T01:48:31.959Z,929.51
2018-11-26T01:49:32.018Z,929.49
2018-11-26T01:50:32.050Z,929.53
2018-11-26T01:51:32.088Z,929.53
2018-11-26T01:52:32.106Z,929.50
2018-11-26T01:53:32.201Z,929.51
2018-11-26T01:54:32.256Z,929.48
2018-11-26T01:55:32.244Z,929.48
2018-11-26T01:56:32.341Z,929.47
2018-11-26T01:57:32.381Z,929.41
2018-11-26T01:58:32.421Z,929.42
2018-11-26T01:59:32.492Z,929.41
2018-11-26T02:00:32.489Z,929.39
2018-11-26T02:01:32.593Z,929.41
2018-11-26T02:02:32.676Z,929.44
2018-11-26T02:03:32.702Z,929.40
2018-11-26T02:04:32.702Z,929.41
2018-11-26T02:05:32.801Z,929.44
2018-11-26T02:06:32.836Z,929.46
2018-11-26T02:07:32.847Z,929.46
2018-11-26T02:08:32.920Z,929.46
2018-11-26T02:09:32.880Z,929.46
2018-11-26T02:10:32.982Z,929.43
2018-11-26T02:11:33.049Z,929.47
2018-11-26T02:12:33.201Z,929.43
2018-11-26T02:13:33.203Z,929.47
2018-11-26T02:14:33.097Z,929.48
2018-11-26T02:15:33.178Z,929.46
2018-11-26T02:16:33.277Z,929.39
2018-11-26T02:17:33.297Z,929.43
2018-11-26T02:18:33.341Z,929.43
2018-11-26T02:19:33.383Z,929.38
2018-11-26T02:20:33.480Z,929.35
2018-11-26T02:21:33.522Z,929.37
2018-11-26T02:22:33.472Z,929.39
2018-11-26T02:23:33.609Z,929.31
2018-11-26T02:24:33.610Z,929.39
2018-11-26T02:25:33.785Z,929.40
2018-11-26T02:26:33.707Z,929.35
2018-11-26T02:27:33.786Z,929.35
2018-11-26T02:28:33.799Z,929.27
2018-11-26T02:29:33.851Z,929.30
2018-11-26T02:30:33.887Z,929.34
2018-11-26T02:31:33.976Z,929.29
2018-11-26T02:32:33.971Z,929.31
2018-11-26T02:33:34.053Z,929.30
2018-11-26T02:34:34.003Z,929.34
2018-11-26T02:35:34.148Z,929.32
2018-11-26T02:36:34.160Z,929.32
2018-11-26T02:37:34.151Z,929.34
2018-11-26T02:38:34.184Z,929.34
2018-11-26T02:39:34.260Z,929.32
2018-11-26T02:40:34.279Z,929.28
2018-11-26T02:41:34.376Z,929.32
2018-11-26T02:42:34.424Z,929.29
2018-11-26T02:43:34.415Z,929.26
2018-11-26T02:44:34.447Z,929.26
2018-11-26T02:45:34.546Z,929.25
2018-11-26T02:46:34.579Z,929.23
2018-11-26T02:47:34.685Z,929.24
2018-11-26T02:48:34.637Z,929.23
2018-11-26T02:49:34.772Z,929.24
2018-11-26T02:50:34.707Z,929.21
2018-11-26T02:51:34.779Z,929.22
2018-11-26T02:52:34.839Z,929.22
2018-11-26T02:53:34.899Z,929.18
2018-11-26T02:54:34.893Z,929.18
2018-11-26T02:55:34.944Z,929.21
2018-11-26T02:56:34.997Z,929.17
2018-11-26T02:57:35.087Z,929.17
2018-11-26T02:58:35.163Z,929.17
2018-11-26T02:59:35.132Z,929.20
2018-11-26T03:00:35.170Z,929.15
2018-11-26T03:01:35.214Z,929.23
2018-11-26T03:02:35.268Z,929.12
2018-11-26T03:03:35.297Z,929.12
2018-11-26T03:04:35.379Z,929.12
2018-11-26T03:05:35.447Z,929.05
2018-11-26T03:06:35.429Z,929.10
2018-11-26T03:07:35.488Z,929.10
2018-11-26T03:08:35.530Z,929.10
2018-11-26T03:09:35.577Z,929.04
2018-11-26T03:10:35.665Z,929.06
2018-11-26T03:11:35.670Z,929.07
2018-11-26T03:12:35.693Z,929.04
2018-11-26T03:13:35.753Z,929.09
2018-11-26T03:14:35.825Z,929.05
2018-11-26T03:15:35.846Z,929.06
2018-11-26T03:16:35.894Z,929.07
2018-11-26T03:17:35.945Z,929.03
2018-11-26T03:18:35.975Z,928.99
2018-11-26T03:19:36.006Z,928.98
2018-11-26T03:20:36.102Z,928.89
2018-11-26T03:21:36.121Z,928.88
2018-11-26T03:22:36.182Z,928.87
2018-11-26T03:23:36.216Z,928.87
2018-11-26T03:24:36.237Z,928.86
2018-11-26T03:25:36.312Z,928.83
2018-11-26T03:26:36.564Z,928.85
2018-11-26T03:27:36.367Z,928.82
2018-11-26T03:28:36.452Z,928.80
2018-11-26T03:29:36.494Z,928.82
2018-11-26T03:30:36.544Z,928.79
2018-11-26T03:31:36.591Z,928.76
2018-11-26T03:32:36.606Z,928.79
2018-11-26T03:33:36.621Z,928.75
2018-11-26T03:34:36.732Z,928.71
2018-11-26T03:35:36.736Z,928.80
2018-11-26T03:36:36.804Z,928.77
2018-11-26T03:37:36.795Z,928.80
2018-11-26T03:38:36.862Z,928.78
2018-11-26T03:39:36.935Z,928.77
2018-11-26T03:40:36.950Z,928.80
2018-11-26T03:41:37.019Z,928.79
2018-11-26T03:42:37.071Z,928.80
2018-11-26T03:43:37.071Z,928.80
2018-11-26T03:44:37.134Z,928.77
2018-11-26T03:45:37.142Z,928.74
2018-11-26T03:46:37.222Z,928.72
2018-11-26T03:47:37.291Z,928.73
2018-11-26T03:48:37.544Z,928.68
2018-11-26T03:49:37.339Z,928.68
2018-11-26T03:50:37.383Z,928.66
2018-11-26T03:51:37.515Z,928.72
2018-11-26T03:52:37.475Z,928.71
2018-11-26T03:53:37.512Z,928.72
2018-11-26T03:54:37.860Z,928.79
2018-11-26T03:55:37.648Z,928.81
2018-11-26T03:56:37.685Z,928.77
2018-11-26T03:57:37.693Z,928.79
2018-11-26T03:58:37.741Z,928.82
2018-11-26T03:59:37.799Z,928.82
2018-11-26T04:00:37.832Z,928.78
2018-11-26T04:01:37.890Z,928.82
2018-11-26T04:02:37.904Z,928.74
2018-11-26T04:03:37.976Z,928.77
2018-11-26T04:04:37.993Z,928.79
2018-11-26T04:05:38.309Z,928.73
2018-11-26T04:06:38.112Z,928.75
2018-11-26T04:07:38.157Z,928.76
2018-11-26T04:08:38.191Z,928.73
2018-11-26T04:09:38.222Z,928.73
2018-11-26T04:10:38.271Z,928.75
2018-11-26T04:11:38.341Z,928.72
2018-11-26T04:12:38.354Z,928.65
2018-11-26T04:13:38.415Z,928.61
2018-11-26T04:14:38.446Z,928.62
2018-11-26T04:15:38.606Z,928.59
2018-11-26T04:16:38.571Z,928.64
2018-11-26T04:17:38.588Z,928.64
2018-11-26T04:18:38.642Z,928.66
2018-11-26T04:19:38.679Z,928.67
2018-11-26T04:20:38.767Z,928.62
2018-11-26T04:21:39.060Z,928.71
2018-11-26T04:22:38.856Z,928.69
2018-11-26T04:23:38.850Z,928.68
2018-11-26T04:24:38.903Z,928.68
2018-11-26T04:25:38.934Z,928.77
2018-11-26T04:26:39.022Z,928.75
2018-11-26T04:27:39.026Z,928.75
2018-11-26T04:28:39.089Z,928.77
2018-11-26T04:29:39.109Z,928.72
2018-11-26T04:30:39.176Z,928.70
2018-11-26T04:31:39.205Z,928.65
2018-11-26T04:32:39.255Z,928.65
2018-11-26T04:33:39.332Z,928.63
2018-11-26T04:34:39.325Z,928.61
2018-11-26T04:35:39.390Z,928.62
2018-11-26T04:36:39.437Z,928.56
2018-11-26T04:37:39.472Z,928.64
2018-11-26T04:38:39.537Z,928.66
2018-11-26T04:39:39.575Z,928.69
2018-11-26T04:40:39.621Z,928.65
2018-11-26T04:41:39.647Z,928.68
2018-11-26T04:42:39.702Z,928.71
2018-11-26T04:43:39.792Z,928.70
2018-11-26T04:44:39.799Z,928.73
2018-11-26T04:45:39.838Z,928.73
2018-11-26T04:46:39.894Z,928.70
2018-11-26T04:47:39.918Z,928.72
2018-11-26T04:48:39.968Z,928.71
2018-11-26T04:49:39.996Z,928.68
2018-11-26T04:50:40.035Z,928.73
2018-11-26T04:51:40.092Z,928.78
2018-11-26T04:52:40.140Z,928.83
2018-11-26T04:53:40.194Z,928.78
2018-11-26T04:54:40.209Z,928.82
2018-11-26T04:55:40.275Z,928.85
2018-11-26T04:56:40.332Z,928.85
2018-11-26T04:57:42.614Z,928.86
2018-11-26T04:58:40.419Z,928.82
2018-11-26T04:59:40.460Z,928.80
2018-11-26T05:00:40.498Z,928.81
2018-11-26T05:01:40.520Z,928.84
2018-11-26T05:02:40.627Z,928.79
2018-11-26T05:03:40.619Z,928.88
2018-11-26T05:04:40.690Z,928.82
2018-11-26T05:05:40.716Z,928.82
2018-11-26T05:06:40.764Z,928.85
2018-11-26T05:07:40.784Z,928.86
2018-11-26T05:08:40.834Z,928.84
2018-11-26T05:09:40.903Z,928.85
2018-11-26T05:10:40.958Z,928.83
2018-11-26T05:11:40.971Z,928.88
2018-11-26T05:12:41.028Z,928.90
2018-11-26T05:13:41.091Z,928.90
2018-11-26T05:14:41.165Z,928.86
2018-11-26T05:15:41.182Z,928.93
2018-11-26T05:16:41.493Z,928.87
2018-11-26T05:17:41.242Z,928.90
2018-11-26T05:18:41.302Z,928.84
2018-11-26T05:19:41.387Z,928.89
2018-11-26T05:20:41.365Z,928.89
2018-11-26T05:21:41.424Z,928.93
2018-11-26T05:22:41.475Z,928.90
2018-11-26T05:23:41.522Z,928.88
2018-11-26T05:24:41.552Z,928.93
2018-11-26T05:25:41.618Z,928.90
2018-11-26T05:26:41.657Z,928.92
2018-11-26T05:27:41.695Z,928.95
2018-11-26T05:28:41.743Z,928.99
2018-11-26T05:29:41.799Z,929.00
2018-11-26T05:30:41.816Z,928.94
2018-11-26T05:31:42.132Z,929.04
2018-11-26T05:32:41.891Z,929.04
2018-11-26T05:33:41.963Z,929.01
2018-11-26T05:34:41.986Z,928.98
2018-11-26T05:35:42.046Z,928.96
2018-11-26T05:36:42.100Z,928.96
2018-11-26T05:37:42.119Z,929.01
2018-11-26T05:38:42.241Z,929.08
2018-11-26T05:39:42.208Z,929.07
2018-11-26T05:40:42.280Z,929.08
2018-11-26T05:41:42.299Z,929.13
2018-11-26T05:42:42.359Z,929.07
2018-11-26T05:43:42.403Z,929.06
2018-11-26T05:44:42.459Z,929.05
2018-11-26T05:45:42.493Z,929.09
2018-11-26T05:46:42.539Z,929.07
2018-11-26T05:47:42.597Z,929.05
2018-11-26T05:48:42.607Z,929.07
2018-11-26T05:49:42.661Z,929.07
2018-11-26T05:50:42.741Z,929.11
2018-11-26T05:51:42.752Z,929.11
2018-11-26T05:52:42.800Z,929.09
2018-11-26T05:53:42.845Z,929.17
2018-11-26T05:54:42.876Z,929.18
2018-11-26T05:55:42.931Z,929.22
2018-11-26T05:56:42.962Z,929.21
2018-11-26T05:57:43.006Z,929.21
2018-11-26T05:58:43.081Z,929.15
2018-11-26T05:59:43.092Z,929.22
2018-11-26T06:00:43.172Z,929.22
2018-11-26T06:01:43.249Z,929.22
2018-11-26T06:02:43.228Z,929.21
2018-11-26T06:03:43.288Z,929.20
2018-11-26T06:04:43.321Z,929.24
2018-11-26T06:05:43.372Z,929.23
2018-11-26T06:06:43.398Z,929.20
2018-11-26T06:07:43.452Z,929.25
2018-11-26T06:08:43.513Z,929.23
2018-11-26T06:09:43.538Z,929.21
2018-11-26T06:10:43.599Z,929.21
2018-11-26T06:11:43.681Z,929.26
2018-11-26T06:12:43.684Z,929.24
2018-11-26T06:13:43.744Z,929.27
2018-11-26T06:14:43.772Z,929.26
2018-11-26T06:15:43.798Z,929.19
2018-11-26T06:16:43.868Z,929.29
2018-11-26T06:17:43.911Z,929.30
2018-11-26T06:18:43.926Z,929.28
2018-11-26T06:19:43.981Z,929.26
2018-11-26T06:20:44.024Z,929.33
2018-11-26T06:21:44.070Z,929.32
2018-11-26T06:22:44.159Z,929.29
2018-11-26T06:23:44.164Z,929.28
2018-11-26T06:24:44.192Z,929.30
2018-11-26T06:25:44.241Z,929.28
2018-11-26T06:26:44.307Z,929.27
2018-11-26T06:27:44.353Z,929.27
2018-11-26T06:28:44.371Z,929.31
2018-11-26T06:29:44.472Z,929.31
2018-11-26T06:30:44.527Z,929.31
2018-11-26T06:31:44.573Z,929.23
2018-11-26T06:32:44.611Z,929.28
2018-11-26T06:33:44.749Z,929.21
2018-11-26T06:34:44.700Z,929.26
2018-11-26T06:35:44.722Z,929.21
2018-11-26T06:36:44.734Z,929.24
2018-11-26T06:37:44.781Z,929.23
2018-11-26T06:38:44.822Z,929.23
2018-11-26T06:39:44.892Z,929.25
2018-11-26T06:40:44.900Z,929.24
2018-11-26T06:41:44.923Z,929.21
2018-11-26T06:42:44.997Z,929.25
2018-11-26T06:43:45.033Z,929.25
2018-11-26T06:44:45.307Z,929.25
2018-11-26T06:45:45.106Z,929.24
2018-11-26T06:46:45.165Z,929.24
2018-11-26T06:47:45.215Z,929.23
2018-11-26T06:48:45.389Z,929.22
2018-11-26T06:49:45.302Z,929.18
2018-11-26T06:50:45.372Z,929.23
2018-11-26T06:51:45.375Z,929.20
2018-11-26T06:52:45.419Z,929.22
2018-11-26T06:53:45.450Z,929.20
2018-11-26T06:54:45.498Z,929.19
2018-11-26T06:55:45.563Z,929.20
2018-11-26T06:56:45.602Z,929.19
2018-11-26T06:57:45.653Z,929.16
2018-11-26T06:58:45.670Z,929.18
2018-11-26T06:59:45.732Z,929.18
2018-11-26T07:00:45.754Z,929.18
2018-11-26T07:01:46.056Z,929.18
2018-11-26T07:02:45.836Z,929.15
2018-11-26T07:03:45.913Z,929.19
2018-11-26T07:04:45.949Z,929.11
2018-11-26T07:05:45.997Z,929.13
2018-11-26T07:06:46.046Z,929.12
2018-11-26T07:07:46.091Z,929.12
2018-11-26T07:08:46.097Z,929.12
2018-11-26T07:09:46.153Z,929.11
2018-11-26T07:10:46.195Z,929.14
2018-11-26T07:11:46.254Z,929.10
2018-11-26T07:12:46.287Z,929.16
2018-11-26T07:13:46.628Z,929.16
2018-11-26T07:14:46.393Z,929.18
2018-11-26T07:15:46.394Z,929.16
2018-11-26T07:16:46.464Z,929.17
2018-11-26T07:17:46.511Z,929.19
2018-11-26T07:18:46.544Z,929.18
2018-11-26T07:19:46.600Z,929.20
2018-11-26T07:20:46.662Z,929.24
2018-11-26T07:21:46.671Z,929.27
2018-11-26T07:22:46.721Z,929.24
2018-11-26T07:23:46.781Z,929.28
2018-11-26T07:24:46.813Z,929.29
2018-11-26T07:25:46.854Z,929.34
2018-11-26T07:26:46.917Z,929.34
2018-11-26T07:27:46.972Z,929.37
2018-11-26T07:28:47.007Z,929.38
2018-11-26T07:29:47.026Z,929.41
2018-11-26T07:30:47.331Z,929.47
2018-11-26T07:31:47.107Z,929.45
2018-11-26T07:32:47.176Z,929.44
2018-11-26T07:33:47.202Z,929.44
2018-11-26T07:34:47.234Z,929.47
2018-11-26T07:35:47.281Z,929.46
2018-11-26T07:36:47.338Z,929.44
2018-11-26T07:37:47.369Z,929.49
2018-11-26T07:38:47.421Z,929.50
2018-11-26T07:39:47.435Z,929.51
2018-11-26T07:40:47.549Z,929.49
2018-11-26T07:41:47.540Z,929.54
2018-11-26T07:42:47.594Z,929.50
2018-11-26T07:43:47.641Z,929.55
2018-11-26T07:44:47.660Z,929.57
2018-11-26T07:45:47.770Z,929.55
2018-11-26T07:46:47.770Z,929.55
2018-11-26T07:47:47.809Z,929.55
2018-11-26T07:48:47.867Z,929.57
2018-11-26T07:49:47.902Z,929.56
2018-11-26T07:50:47.943Z,929.55
2018-11-26T07:51:47.979Z,929.55
2018-11-26T07:52:48.019Z,929.58
2018-11-26T07:53:48.088Z,929.60
2018-11-26T07:54:48.124Z,929.61
2018-11-26T07:55:48.180Z,929.56
2018-11-26T07:56:48.192Z,929.61
2018-11-26T07:57:48.258Z,929.60
2018-11-26T07:58:48.282Z,929.62
2018-11-26T07:59:48.363Z,929.62
2018-11-26T08:00:48.398Z,929.62
2018-11-26T08:01:48.437Z,929.59
2018-11-26T08:02:48.459Z,929.60
2018-11-26T08:03:48.503Z,929.58
2018-11-26T08:04:48.565Z,929.58
2018-11-26T08:05:48.607Z,929.59
2018-11-26T08:06:48.651Z,929.62
2018-11-26T08:07:48.698Z,929.63
2018-11-26T08:08:48.754Z,929.62
2018-11-26T08:09:48.781Z,929.65
2018-11-26T08:10:48.851Z,929.63
2018-11-26T08:11:48.875Z,929.66
2018-11-26T08:12:48.928Z,929.64
2018-11-26T08:13:48.943Z,929.67
2018-11-26T08:14:49.031Z,929.67
2018-11-26T08:15:49.034Z,929.65
2018-11-26T08:16:49.090Z,929.64
2018-11-26T08:17:49.181Z,929.66
2018-11-26T08:18:49.181Z,929.68
2018-11-26T08:19:49.218Z,929.71
2018-11-26T08:20:49.402Z,929.71
2018-11-26T08:21:49.328Z,929.71
2018-11-26T08:22:49.334Z,929.77
2018-11-26T08:23:49.442Z,929.82
2018-11-26T08:24:49.422Z,929.82
2018-11-26T08:25:49.470Z,929.86
2018-11-26T08:26:49.533Z,929.88
2018-11-26T08:27:49.573Z,929.90
2018-11-26T08:28:49.616Z,929.88
2018-11-26T08:29:49.694Z,929.92
2018-11-26T08:30:49.690Z,929.88
2018-11-26T08:31:49.778Z,929.93
2018-11-26T08:32:49.801Z,929.90
2018-11-26T08:33:49.813Z,929.92
2018-11-26T08:34:49.905Z,929.93
2018-11-26T08:35:49.905Z,929.98
2018-11-26T08:36:49.940Z,929.97
2018-11-26T08:37:50.009Z,930.00
2018-11-26T08:38:50.043Z,929.97
2018-11-26T08:39:50.094Z,929.98
2018-11-26T08:40:50.128Z,929.99
2018-11-26T08:41:50.195Z,929.97
2018-11-26T08:42:50.228Z,929.98
2018-11-26T08:43:50.313Z,929.98
2018-11-26T08:44:50.316Z,929.98
2018-11-26T08:45:50.370Z,930.00
2018-11-26T08:46:50.724Z,930.01
2018-11-26T08:47:50.456Z,930.02
2018-11-26T08:48:50.476Z,930.06
2018-11-26T08:49:50.544Z,930.04
2018-11-26T08:50:50.573Z,930.00
2018-11-26T08:51:50.617Z,930.03
2018-11-26T08:52:50.674Z,930.06
2018-11-26T08:53:50.703Z,930.06
2018-11-26T08:54:50.770Z,930.06
2018-11-26T08:55:50.783Z,930.11
2018-11-26T08:56:50.853Z,930.12
2018-11-26T08:57:50.930Z,930.12
2018-11-26T08:58:50.949Z,930.15
2018-11-26T08:59:51.032Z,930.16
2018-11-26T09:00:51.064Z,930.15
2018-11-26T09:01:51.082Z,930.16
2018-11-26T09:02:51.125Z,930.19
2018-11-26T09:03:51.165Z,930.18
2018-11-26T09:04:51.204Z,930.19
2018-11-26T09:05:51.285Z,930.22
2018-11-26T09:06:51.288Z,930.22
2018-11-26T09:07:51.336Z,930.28
2018-11-26T09:08:51.377Z,930.29
2018-11-26T09:09:51.434Z,930.30
2018-11-26T09:10:51.473Z,930.30
2018-11-26T09:11:51.519Z,930.35
2018-11-26T09:12:51.555Z,930.37
2018-11-26T09:13:51.624Z,930.34
2018-11-26T09:14:51.629Z,930.36
2018-11-26T09:15:51.673Z,930.39
2018-11-26T09:16:51.721Z,930.44
2018-11-26T09:17:51.777Z,930.46
2018-11-26T09:18:51.884Z,930.47
2018-11-26T09:19:52.125Z,930.46
2018-11-26T09:20:51.960Z,930.45
2018-11-26T09:21:51.954Z,930.46
2018-11-26T09:22:52.056Z,930.55
2018-11-26T09:23:52.034Z,930.56
2018-11-26T09:24:52.162Z,930.55
2018-11-26T09:25:52.141Z,930.59
2018-11-26T09:26:52.206Z,930.57
2018-11-26T09:27:52.231Z,930.57
2018-11-26T09:28:52.274Z,930.58
2018-11-26T09:29:52.375Z,930.59
2018-11-26T09:30:52.380Z,930.61
2018-11-26T09:31:52.399Z,930.59
2018-11-26T09:32:52.469Z,930.56
2018-11-26T09:33:52.507Z,930.55
2018-11-26T09:34:52.557Z,930.58
2018-11-26T09:35:52.643Z,930.59
2018-11-26T09:36:52.648Z,930.61
2018-11-26T09:37:52.693Z,930.60
2018-11-26T09:38:52.748Z,930.61
2018-11-26T09:39:52.771Z,930.55
2018-11-26T09:40:52.821Z,930.68
2018-11-26T09:41:52.880Z,930.68
2018-11-26T09:42:52.907Z,930.73
2018-11-26T09:43:52.977Z,930.72
2018-11-26T09:44:53.005Z,930.78
2018-11-26T09:45:53.063Z,930.72
2018-11-26T09:46:53.098Z,930.74
2018-11-26T09:47:53.157Z,930.78
2018-11-26T09:48:53.178Z,930.78
2018-11-26T09:49:53.229Z,930.75
2018-11-26T09:50:53.277Z,930.80
2018-11-26T09:51:53.312Z,930.78
2018-11-26T09:52:53.419Z,930.75
2018-11-26T09:53:53.416Z,930.79
2018-11-26T09:54:53.491Z,930.78
2018-11-26T09:55:53.531Z,930.75
2018-11-26T09:56:53.558Z,930.76
2018-11-26T09:57:53.597Z,930.80
2018-11-26T09:58:53.651Z,930.84
2018-11-26T09:59:53.708Z,930.79
2018-11-26T10:00:53.754Z,930.81
2018-11-26T10:01:53.876Z,930.81
2018-11-26T10:02:53.813Z,930.81
2018-11-26T10:03:53.859Z,930.88
2018-11-26T10:04:53.942Z,930.85
2018-11-26T10:05:53.954Z,930.91
2018-11-26T10:06:54.028Z,930.89
2018-11-26T10:07:54.120Z,930.90
2018-11-26T10:08:54.116Z,930.95
2018-11-26T10:09:54.166Z,930.95
2018-11-26T10:10:54.447Z,931.00
2018-11-26T10:11:54.252Z,931.00
2018-11-26T10:12:54.338Z,930.97
2018-11-26T10:13:54.327Z,930.99
2018-11-26T10:14:54.393Z,931.05
2018-11-26T10:15:54.485Z,931.04
2018-11-26T10:16:54.474Z,931.04
2018-11-26T10:17:54.509Z,931.06
2018-11-26T10:18:54.559Z,931.09
2018-11-26T10:19:54.645Z,931.14
2018-11-26T10:20:54.671Z,931.14
2018-11-26T10:21:54.956Z,931.14
2018-11-26T10:22:54.813Z,931.22
2018-11-26T10:23:54.807Z,931.20
2018-11-26T10:24:54.848Z,931.19
2018-11-26T10:25:54.892Z,931.23
2018-11-26T10:26:54.955Z,931.24
2018-11-26T10:27:55.244Z,931.25
2018-11-26T10:28:55.043Z,931.21
2018-11-26T10:29:55.091Z,931.25
2018-11-26T10:30:55.136Z,931.24
2018-11-26T10:31:55.173Z,931.26
2018-11-26T10:32:55.199Z,931.24
2018-11-26T10:33:55.261Z,931.29
2018-11-26T10:34:55.319Z,931.33
2018-11-26T10:35:55.393Z,931.29
2018-11-26T10:36:55.399Z,931.28
2018-11-26T10:37:55.425Z,931.31
2018-11-26T10:38:55.483Z,931.35
2018-11-26T10:39:55.529Z,931.29
2018-11-26T10:40:55.576Z,931.29
2018-11-26T10:41:55.649Z,931.31
2018-11-26T10:42:55.662Z,931.29
2018-11-26T10:43:55.732Z,931.27
2018-11-26T10:44:55.787Z,931.28
2018-11-26T10:45:55.804Z,931.31
2018-11-26T10:46:55.863Z,931.30
2018-11-26T10:47:55.893Z,931.29
2018-11-26T10:48:55.950Z,931.33
2018-11-26T10:49:56.001Z,931.30
2018-11-26T10:50:56.042Z,931.27
2018-11-26T10:51:56.077Z,931.30
2018-11-26T10:52:56.135Z,931.38
2018-11-26T10:53:56.191Z,931.37
2018-11-26T10:54:56.241Z,931.31
2018-11-26T10:55:56.282Z,931.30
2018-11-26T10:56:56.302Z,931.37
2018-11-26T10:57:56.412Z,931.33
2018-11-26T10:58:56.414Z,931.34
2018-11-26T10:59:56.521Z,931.37
2018-11-26T11:00:56.514Z,931.35
2018-11-26T11:01:56.555Z,931.34
2018-11-26T11:02:56.594Z,931.43
2018-11-26T11:03:56.891Z,931.40
2018-11-26T11:04:56.696Z,931.45
2018-11-26T11:05:56.738Z,931.50
2018-11-26T11:06:56.802Z,931.55
2018-11-26T11:07:56.858Z,931.55
2018-11-26T11:08:56.871Z,931.56
2018-11-26T11:09:56.925Z,931.61
2018-11-26T11:10:56.993Z,931.51
2018-11-26T11:11:57.040Z,931.52
2018-11-26T11:12:57.081Z,931.58
2018-11-26T11:13:57.125Z,931.52
2018-11-26T11:14:57.171Z,931.52
2018-11-26T11:15:57.481Z,931.53
2018-11-26T11:16:57.320Z,931.56
2018-11-26T11:17:57.317Z,931.59
2018-11-26T11:18:57.378Z,931.60
2018-11-26T11:19:57.429Z,931.61
2018-11-26T11:20:57.442Z,931.64
2018-11-26T11:21:57.514Z,931.62
2018-11-26T11:22:57.571Z,931.62
2018-11-26T11:23:57.637Z,931.59
2018-11-26T11:24:57.660Z,931.68
2018-11-26T11:25:57.730Z,931.69
2018-11-26T11:26:57.789Z,931.60
2018-11-26T11:27:57.855Z,931.63
2018-11-26T11:28:57.850Z,931.63
2018-11-26T11:29:57.889Z,931.64
2018-11-26T11:30:57.962Z,931.65
2018-11-26T11:31:57.995Z,931.70
2018-11-26T11:32:58.053Z,931.77
2018-11-26T11:33:58.098Z,931.68
2018-11-26T11:34:58.186Z,931.69
2018-11-26T11:35:58.211Z,931.73
2018-11-26T11:36:58.264Z,931.77
2018-11-26T11:37:58.306Z,931.75
2018-11-26T11:38:58.347Z,931.77
2018-11-26T11:39:58.418Z,931.73
2018-11-26T11:40:58.455Z,931.88
2018-11-26T11:41:58.525Z,931.82
2018-11-26T11:42:58.571Z,931.80
2018-11-26T11:43:58.636Z,931.85
2018-11-26T11:44:58.662Z,931.80
2018-11-26T11:45:58.716Z,931.83
2018-11-26T11:46:58.762Z,931.81
2018-11-26T11:47:58.823Z,931.78
2018-11-26T11:48:58.885Z,931.80
2018-11-26T11:49:58.910Z,931.74
2018-11-26T11:50:58.989Z,931.81
2018-11-26T11:51:59.024Z,931.85
2018-11-26T11:52:59.076Z,931.88
2018-11-26T11:53:59.142Z,931.85
2018-11-26T11:54:59.191Z,931.85
2018-11-26T11:55:59.243Z,931.90
2018-11-26T11:56:59.294Z,931.88
2018-11-26T11:57:59.350Z,931.86
2018-11-26T11:58:59.404Z,931.89
2018-11-26T11:59:59.433Z,931.96
2018-11-26T12:00:59.473Z,931.94
2018-11-26T12:01:59.540Z,931.94
2018-11-26T12:02:59.643Z,931.94
2018-11-26T12:03:59.655Z,931.90
2018-11-26T12:04:59.684Z,931.96
2018-11-26T12:05:59.795Z,931.94
2018-11-26T12:06:59.791Z,931.94
2018-11-26T12:07:59.853Z,932.00
2018-11-26T12:08:59.914Z,932.00
2018-11-26T12:09:59.981Z,932.01
2018-11-26T12:10:59.999Z,931.98
2018-11-26T12:12:00.071Z,931.99
2018-11-26T12:13:00.145Z,932.07
2018-11-26T12:14:00.177Z,932.02
2018-11-26T12:15:00.247Z,932.03
2018-11-26T12:16:00.307Z,932.00
2018-11-26T12:17:00.338Z,932.06
2018-11-26T12:18:00.407Z,931.97
2018-11-26T12:19:00.435Z,931.98
2018-11-26T12:20:00.493Z,932.02
2018-11-26T12:21:00.538Z,932.00
2018-11-26T12:22:00.602Z,932.02
2018-11-26T12:23:00.657Z,932.04
2018-11-26T12:24:00.718Z,932.06
2018-11-26T12:25:00.784Z,932.11
2018-11-26T12:26:00.835Z,932.18
2018-11-26T12:27:00.871Z,932.13
2018-11-26T12:28:00.920Z,932.09
2018-11-26T12:29:00.981Z,932.10